Dinteloord, Netherlands
Current Conditions -  °F | °C
As of 9:56 AM on Friday 24 Oct 2014 (Local Time) from EHWO Reporting Station
Drizzle Drizzle  
Wind Chill: 52°   Ceiling: 2400
Heat Index: 52°   Visibility: 6mi
Dew Point: 50°   Wind: 8mph
Humidity: 94%   Direction: 190°S
Pressure: 30.06"   Gusts: NA
Location:  51.64°N, 4.37°E
Report Text: EHWO 240756Z AUTO 19007KT 9999 DZ BKN024 OVC028 11/10 Q1018 WHT 19008KT 8000 -RADZ FEW018 BKN025 OVC035 TEMPO RA SCT008 SCT018 BKN025
Loading
Personal Weather Stations






























Interactive Weather Map
Tropical Storm Tracking
New forecast layout! Learn more

10-Day Weather Forecast

Advertisements
Track Severe Weather on mobile